Time;durP1;ratioP1;P1;durP2;ratioP2;P2;SDS_P1;SDS_P2;PMS_P1;PMS_P2;Temp;Humidity;BMP_temperature;BMP_pressure;BME280_temperature;BME280_humidity;BME280_pressure;Samples;Min_cycle;Max_cycle;Signal;HPM_P1;HPM_P2
2022/10/30 00:02:20;;;;;;;0.10;0.10;;;23.40;99.90;;;;;;5071717;28;20218;-76
2022/10/30 00:04:51;;;;;;;2.10;0.30;;;23.40;99.90;;;;;;5065273;28;20194;-77
2022/10/30 00:07:22;;;;;;;0.22;0.20;;;23.50;99.90;;;;;;5073535;28;20193;-74
2022/10/30 00:09:53;;;;;;;0.80;0.20;;;23.60;99.90;;;;;;5073328;28;20224;-75
2022/10/30 00:12:23;;;;;;;0.55;0.30;;;23.70;99.90;;;;;;5068287;28;20559;-76
2022/10/30 00:14:56;;;;;;;0.30;0.30;;;23.70;99.90;;;;;;5069707;28;20207;-76
2022/10/30 00:17:27;;;;;;;0.32;0.20;;;23.70;99.90;;;;;;5061066;28;20194;-77
2022/10/30 00:19:58;;;;;;;0.30;0.20;;;23.80;99.90;;;;;;5065502;28;20220;-71
2022/10/30 00:22:29;;;;;;;0.70;0.20;;;24.00;99.90;;;;;;5054057;28;20560;-76
2022/10/30 00:24:59;;;;;;;0.40;0.20;;;24.00;99.90;;;;;;5069179;28;20193;-74
2022/10/30 00:27:30;;;;;;;1.42;0.30;;;24.20;99.90;;;;;;5072876;28;20203;-75
2022/10/30 00:30:03;;;;;;;3.08;1.17;;;24.20;99.90;;;;;;5062318;28;20225;-74
2022/10/30 00:32:34;;;;;;;1.15;0.50;;;24.20;99.90;;;;;;5067139;28;20201;-74
2022/10/30 00:35:05;;;;;;;0.65;0.30;;;24.10;99.90;;;;;;5064051;28;20230;-72
2022/10/30 00:37:36;;;;;;;5.45;3.63;;;24.10;99.90;;;;;;5060242;28;20208;-76
2022/10/30 00:40:08;;;;;;;2.05;1.08;;;24.20;99.90;;;;;;5069659;28;20228;-77
2022/10/30 00:42:39;;;;;;;0.52;0.20;;;24.10;99.90;;;;;;5057421;28;20211;-74
2022/10/30 00:45:14;;;;;;;1.00;0.52;;;23.90;99.90;;;;;;5055681;28;20237;-77
2022/10/30 00:47:53;;;;;;;0.75;0.40;;;23.80;99.90;;;;;;5069501;28;20207;-76
2022/10/30 00:50:28;;;;;;;0.60;0.50;;;24.00;99.90;;;;;;5062473;28;20199;-79
2022/10/30 00:53:03;;;;;;;0.30;0.30;;;24.20;99.90;;;;;;5065826;28;20200;-73
2022/10/30 00:55:38;;;;;;;0.50;0.28;;;24.30;99.90;;;;;;5072386;28;20197;-80
2022/10/30 00:58:15;;;;;;;0.45;0.32;;;24.40;99.90;;;;;;5069195;28;20690;-77
2022/10/30 01:00:52;;;;;;;0.90;0.25;;;24.40;99.90;;;;;;5061446;28;20217;-75
2022/10/30 01:03:24;;;;;;;0.65;0.10;;;24.60;99.90;;;;;;5073043;28;20201;-76
2022/10/30 01:05:58;;;;;;;0.70;0.32;;;24.70;99.90;;;;;;5064369;28;20194;-77
2022/10/30 01:08:29;;;;;;;0.57;0.20;;;24.50;99.90;;;;;;5067068;28;20664;-78
2022/10/30 01:11:02;;;;;;;0.28;0.17;;;24.60;99.90;;;;;;5073743;28;20193;-79
2022/10/30 01:13:34;;;;;;;1.02;0.30;;;24.50;99.90;;;;;;5070397;28;20267;-78
2022/10/30 01:16:27;;;;;;;0.30;0.20;;;24.40;99.90;;;;;;5067068;28;20211;-76
2022/10/30 01:19:04;;;;;;;0.20;0.20;;;24.40;99.90;;;;;;5058908;28;20196;-76
2022/10/30 01:21:45;;;;;;;1.25;0.20;;;24.60;99.90;;;;;;5066003;28;20207;-76
2022/10/30 01:24:28;;;;;;;0.20;0.20;;;24.60;99.90;;;;;;5075645;28;20655;-76
2022/10/30 01:27:10;;;;;;;1.85;0.30;;;24.70;99.90;;;;;;5070609;28;20190;-72
2022/10/30 01:29:52;;;;;;;1.35;0.40;;;24.70;99.90;;;;;;5075091;28;20307;-77
2022/10/30 01:32:39;;;;;;;0.20;0.20;;;24.60;99.90;;;;;;5069817;28;20200;-78
2022/10/30 01:35:16;;;;;;;0.38;0.20;;;24.70;99.90;;;;;;5072101;28;22046;-78
2022/10/30 01:37:54;;;;;;;0.43;0.20;;;24.60;99.90;;;;;;5076440;28;20196;-76
2022/10/30 01:40:25;;;;;;;1.27;0.30;;;24.60;99.90;;;;;;5070262;28;20223;-77
2022/10/30 01:42:57;;;;;;;0.88;0.20;;;24.60;99.90;;;;;;5077134;28;20199;-73
2022/10/30 01:45:44;;;;;;;0.90;0.28;;;24.60;99.90;;;;;;5079834;28;20272;-75
2022/10/30 01:48:49;;;;;;;0.63;0.30;;;24.60;99.90;;;;;;5070754;28;20536;-75
2022/10/30 01:51:32;;;;;;;3.63;0.63;;;24.60;99.90;;;;;;5042356;28;20201;-76
2022/10/30 01:54:11;;;;;;;2.30;0.47;;;24.60;99.90;;;;;;5075451;28;20197;-73
2022/10/30 01:56:46;;;;;;;1.80;0.65;;;24.60;99.90;;;;;;5071364;28;20198;-75
2022/10/30 01:59:22;;;;;;;4.90;0.70;;;24.40;99.90;;;;;;5065260;28;20196;-74
2022/10/30 02:01:53;;;;;;;1.88;0.50;;;24.10;99.90;;;;;;5062314;28;20197;-76
2022/10/30 02:04:26;;;;;;;1.40;0.50;;;24.10;99.90;;;;;;5057820;28;20567;-75
2022/10/30 02:06:57;;;;;;;1.05;0.50;;;24.10;99.90;;;;;;5067878;28;20197;-71
2022/10/30 02:09:28;;;;;;;1.77;0.40;;;24.10;99.90;;;;;;5065778;28;20204;-75
2022/10/30 02:11:59;;;;;;;0.85;0.40;;;23.80;99.90;;;;;;5067635;28;20189;-74
2022/10/30 02:14:35;;;;;;;0.90;0.50;;;23.70;99.90;;;;;;5062179;28;20201;-76
2022/10/30 02:17:08;;;;;;;2.15;0.60;;;23.60;99.90;;;;;;5069118;28;20208;-76
2022/10/30 02:19:40;;;;;;;1.20;0.63;;;23.40;99.90;;;;;;5056083;28;20715;-73
2022/10/30 02:22:13;;;;;;;3.30;0.60;;;23.30;99.90;;;;;;5056247;28;20208;-76
2022/10/30 02:24:44;;;;;;;1.80;0.50;;;23.30;99.90;;;;;;5075048;28;20207;-75
2022/10/30 02:27:14;;;;;;;2.47;0.77;;;23.20;99.90;;;;;;5075367;28;20220;-75
2022/10/30 02:29:45;;;;;;;1.75;0.50;;;22.90;99.90;;;;;;5071485;28;20225;-73
2022/10/30 02:32:16;;;;;;;2.58;0.50;;;23.00;99.90;;;;;;5064607;28;20193;-73
2022/10/30 02:34:46;;;;;;;2.90;0.55;;;23.00;99.90;;;;;;5061795;28;20205;-74
2022/10/30 02:37:19;;;;;;;2.05;0.70;;;22.80;99.90;;;;;;5070356;28;20203;-75
2022/10/30 02:39:50;;;;;;;1.45;0.50;;;22.80;99.90;;;;;;5064249;28;20212;-76
2022/10/30 02:42:22;;;;;;;0.80;0.50;;;22.70;99.90;;;;;;5062189;28;20196;-76
2022/10/30 02:44:52;;;;;;;0.80;0.43;;;22.80;99.90;;;;;;5074787;28;20240;-78
2022/10/30 02:47:23;;;;;;;1.23;0.45;;;23.00;99.90;;;;;;5060528;28;20202;-74
2022/10/30 02:49:54;;;;;;;2.03;0.50;;;23.30;99.90;;;;;;5063482;28;20200;-76
2022/10/30 02:52:26;;;;;;;0.63;0.40;;;23.10;99.90;;;;;;5060829;28;20215;-74
2022/10/30 02:54:57;;;;;;;4.25;1.23;;;23.00;99.90;;;;;;5058483;28;20204;-75
2022/10/30 02:57:28;;;;;;;0.77;0.40;;;22.80;99.90;;;;;;5068208;28;20572;-75
2022/10/30 02:59:58;;;;;;;3.25;0.80;;;22.70;99.90;;;;;;5063567;28;20208;-75
2022/10/30 03:02:29;;;;;;;1.67;0.40;;;22.70;99.90;;;;;;5060203;28;20197;-71
2022/10/30 03:05:00;;;;;;;0.90;0.50;;;22.40;99.90;;;;;;5069938;28;20197;-73
2022/10/30 03:07:32;;;;;;;0.68;0.47;;;22.30;99.90;;;;;;5054954;28;20197;-73
2022/10/30 03:10:03;;;;;;;1.08;0.45;;;22.20;99.90;;;;;;5056360;28;20197;-74
2022/10/30 03:12:34;;;;;;;0.68;0.32;;;22.30;99.90;;;;;;5063976;28;20194;-75
2022/10/30 03:15:05;;;;;;;1.55;0.50;;;22.20;99.90;;;;;;5062069;28;20197;-74
2022/10/30 03:17:36;;;;;;;1.30;0.43;;;22.40;99.90;;;;;;5064718;28;20197;-76
2022/10/30 03:20:07;;;;;;;1.40;0.30;;;22.60;99.90;;;;;;5070683;28;20225;-76
2022/10/30 03:22:39;;;;;;;1.17;0.32;;;22.40;99.90;;;;;;5071696;28;20203;-73
2022/10/30 03:25:11;;;;;;;3.60;0.50;;;22.40;99.90;;;;;;5071635;28;20197;-76
2022/10/30 03:27:41;;;;;;;1.20;0.40;;;22.50;99.90;;;;;;5070529;28;20201;-72
2022/10/30 03:30:13;;;;;;;1.92;0.75;;;22.50;99.90;;;;;;5071519;28;20201;-74
2022/10/30 03:32:44;;;;;;;0.93;0.30;;;22.60;99.90;;;;;;5072860;28;20197;-75
2022/10/30 03:35:14;;;;;;;1.75;0.40;;;22.60;99.90;;;;;;5071086;28;20223;-75
2022/10/30 03:37:47;;;;;;;1.83;0.65;;;22.60;99.90;;;;;;5062429;28;20227;-76
2022/10/30 03:40:18;;;;;;;1.05;0.22;;;22.60;99.90;;;;;;5071807;28;20212;-76
2022/10/30 03:42:49;;;;;;;1.08;0.50;;;22.60;99.90;;;;;;5073211;28;20276;-74
2022/10/30 03:45:19;;;;;;;2.63;0.50;;;22.50;99.90;;;;;;5070694;28;20597;-73
2022/10/30 03:47:50;;;;;;;0.70;0.40;;;22.30;99.90;;;;;;5068334;28;20219;-72
2022/10/30 03:50:21;;;;;;;3.83;0.50;;;22.20;99.90;;;;;;5070746;28;20616;-69
2022/10/30 03:52:55;;;;;;;1.23;0.30;;;22.00;99.90;;;;;;5071543;28;20204;-74
2022/10/30 03:55:26;;;;;;;0.60;0.40;;;21.90;99.90;;;;;;5071777;28;21659;-72
2022/10/30 03:57:57;;;;;;;1.00;0.40;;;22.00;99.90;;;;;;5072429;28;20199;-73
2022/10/30 04:00:28;;;;;;;0.88;0.30;;;22.10;99.90;;;;;;5071748;28;20808;-72
2022/10/30 04:02:59;;;;;;;1.98;0.40;;;22.00;99.90;;;;;;5071866;28;20188;-71
2022/10/30 04:05:31;;;;;;;2.25;0.40;;;22.00;99.90;;;;;;5071927;28;20189;-75
2022/10/30 04:08:06;;;;;;;0.73;0.20;;;21.80;99.90;;;;;;5069224;28;20193;-72
2022/10/30 04:10:37;;;;;;;0.95;0.30;;;21.80;99.90;;;;;;5065730;28;20610;-73
2022/10/30 04:13:09;;;;;;;0.82;0.40;;;21.90;99.90;;;;;;5070074;28;20205;-76
2022/10/30 04:15:39;;;;;;;0.52;0.38;;;21.90;99.90;;;;;;5066201;28;20194;-73
2022/10/30 04:18:12;;;;;;;1.23;0.52;;;21.80;99.90;;;;;;5068012;28;20197;-74
2022/10/30 04:20:43;;;;;;;4.72;0.60;;;21.70;99.90;;;;;;5067131;28;20566;-75
2022/10/30 04:23:17;;;;;;;1.35;0.47;;;21.70;99.90;;;;;;5080152;28;20200;-71
2022/10/30 04:25:48;;;;;;;3.28;0.45;;;21.60;99.90;;;;;;5067622;28;20193;-74
2022/10/30 04:28:20;;;;;;;0.60;0.40;;;21.50;99.90;;;;;;5062935;28;20216;-73
2022/10/30 04:30:51;;;;;;;3.72;0.45;;;21.50;99.90;;;;;;5065962;28;20628;-76
2022/10/30 04:33:21;;;;;;;1.15;0.50;;;21.50;99.90;;;;;;5067725;28;20293;-75
2022/10/30 04:35:53;;;;;;;2.08;0.50;;;21.30;99.90;;;;;;5069519;28;20199;-73
2022/10/30 04:38:26;;;;;;;1.77;0.40;;;21.20;99.90;;;;;;5068725;28;20583;-74
2022/10/30 04:40:56;;;;;;;1.85;0.45;;;21.20;99.90;;;;;;5068212;28;20217;-75
2022/10/30 04:43:27;;;;;;;1.70;0.80;;;21.10;99.90;;;;;;5070490;28;20197;-74
2022/10/30 04:45:58;;;;;;;3.33;0.70;;;21.10;99.90;;;;;;5068739;28;20256;-75
2022/10/30 04:48:29;;;;;;;1.20;0.40;;;21.30;99.90;;;;;;5070700;28;20200;-76
2022/10/30 04:51:01;;;;;;;2.17;0.50;;;21.40;99.90;;;;;;5070637;28;20700;-76
2022/10/30 04:53:34;;;;;;;0.95;0.40;;;21.50;99.90;;;;;;5070544;28;20276;-74
2022/10/30 04:56:05;;;;;;;2.15;0.45;;;21.50;99.90;;;;;;5068739;28;20215;-75
2022/10/30 04:58:35;;;;;;;1.52;0.40;;;21.70;99.90;;;;;;5071639;28;20193;-76
2022/10/30 05:01:07;;;;;;;1.58;0.43;;;21.70;99.90;;;;;;5069050;28;20212;-74
2022/10/30 05:03:38;;;;;;;1.40;0.40;;;21.60;99.90;;;;;;5068631;28;20197;-76
2022/10/30 05:06:17;;;;;;;1.52;0.50;;;21.60;99.90;;;;;;5069401;28;20667;-75
2022/10/30 05:08:49;;;;;;;1.08;0.32;;;21.50;99.90;;;;;;5067082;28;20569;-75
2022/10/30 05:11:20;;;;;;;1.50;0.30;;;21.50;99.90;;;;;;5065772;28;20201;-76
2022/10/30 05:13:51;;;;;;;2.28;0.40;;;21.40;99.90;;;;;;5065263;28;20189;-76
2022/10/30 05:16:22;;;;;;;0.98;0.50;;;21.10;99.90;;;;;;5073487;28;20581;-70
2022/10/30 05:18:53;;;;;;;1.42;0.40;;;21.20;99.90;;;;;;5072353;28;20660;-76
2022/10/30 05:21:23;;;;;;;4.00;0.50;;;21.20;99.90;;;;;;5073748;28;20218;-74
2022/10/30 05:23:56;;;;;;;1.90;0.50;;;21.20;99.90;;;;;;5070947;28;20197;-76
2022/10/30 05:26:27;;;;;;;1.40;0.40;;;21.20;99.90;;;;;;5075439;28;20195;-74
2022/10/30 05:28:57;;;;;;;2.08;0.50;;;21.30;99.90;;;;;;5071418;28;20232;-75
2022/10/30 05:31:28;;;;;;;2.58;0.52;;;21.20;99.90;;;;;;5075410;28;20593;-75
2022/10/30 05:33:59;;;;;;;2.38;0.68;;;21.10;99.90;;;;;;5071407;28;20538;-77
2022/10/30 05:36:30;;;;;;;1.23;0.50;;;21.20;99.90;;;;;;5072270;28;20201;-74
2022/10/30 05:39:02;;;;;;;2.45;0.52;;;21.20;99.90;;;;;;5074840;28;20554;-76
2022/10/30 05:41:33;;;;;;;1.52;0.50;;;21.20;99.90;;;;;;5064322;28;20213;-75
2022/10/30 05:44:04;;;;;;;1.85;0.60;;;21.10;99.90;;;;;;5074436;28;20648;-76
2022/10/30 05:46:35;;;;;;;2.30;0.50;;;21.10;99.90;;;;;;5071857;28;20193;-74
2022/10/30 05:49:05;;;;;;;1.23;0.50;;;21.10;99.90;;;;;;5074740;28;20204;-75
2022/10/30 05:51:36;;;;;;;1.35;0.50;;;21.10;99.90;;;;;;5073762;28;20586;-75
2022/10/30 05:54:09;;;;;;;0.73;0.40;;;21.10;99.90;;;;;;5073857;28;20200;-78
2022/10/30 05:56:40;;;;;;;2.42;0.50;;;20.90;99.90;;;;;;5071619;28;20185;-75
2022/10/30 05:59:11;;;;;;;2.20;0.50;;;20.80;99.90;;;;;;5067960;28;20208;-76
2022/10/30 06:01:41;;;;;;;1.13;0.40;;;20.70;99.90;;;;;;5070816;28;20213;-75
2022/10/30 06:04:12;;;;;;;1.25;0.40;;;20.70;99.90;;;;;;5065633;28;20197;-76
2022/10/30 06:06:43;;;;;;;1.55;0.47;;;20.70;99.90;;;;;;5075074;28;20193;-76
2022/10/30 06:09:15;;;;;;;1.67;0.50;;;20.70;99.90;;;;;;5071712;28;20665;-71
2022/10/30 06:11:46;;;;;;;2.05;0.40;;;20.60;99.90;;;;;;5074751;28;20562;-70
2022/10/30 06:14:17;;;;;;;5.78;0.73;;;20.50;99.90;;;;;;5072568;28;20197;-75
2022/10/30 06:16:48;;;;;;;2.03;0.40;;;20.50;99.90;;;;;;5065973;28;20204;-74
2022/10/30 06:19:18;;;;;;;2.15;0.47;;;20.60;99.90;;;;;;5073991;28;20193;-76
2022/10/30 06:21:49;;;;;;;0.93;0.43;;;20.50;99.90;;;;;;5069211;28;20220;-77
2022/10/30 06:24:22;;;;;;;1.58;0.55;;;20.50;99.90;;;;;;5068168;28;20204;-74
2022/10/30 06:26:52;;;;;;;1.95;0.50;;;20.60;99.90;;;;;;5069969;28;20617;-75
2022/10/30 06:29:26;;;;;;;2.65;0.50;;;20.60;99.90;;;;;;5069796;28;20224;-77
2022/10/30 06:31:57;;;;;;;1.10;0.40;;;20.60;99.90;;;;;;5072338;28;20204;-76
2022/10/30 06:34:27;;;;;;;4.45;0.55;;;20.60;99.90;;;;;;5067367;28;20300;-75
2022/10/30 06:36:58;;;;;;;0.98;0.50;;;20.40;99.90;;;;;;5071442;28;20326;-74
2022/10/30 06:39:31;;;;;;;2.95;0.50;;;20.40;99.90;;;;;;5064325;28;20203;-75
2022/10/30 06:42:05;;;;;;;0.98;0.43;;;20.40;99.90;;;;;;5069840;28;20231;-72
2022/10/30 06:44:35;;;;;;;5.88;0.70;;;20.40;99.90;;;;;;5068403;28;20228;-76
2022/10/30 06:47:06;;;;;;;1.80;0.50;;;20.30;99.90;;;;;;5067823;28;20663;-76
2022/10/30 06:49:37;;;;;;;0.77;0.40;;;20.40;99.90;;;;;;5070205;28;20677;-77
2022/10/30 06:52:07;;;;;;;2.05;0.47;;;20.40;99.90;;;;;;5071802;28;20204;-77
2022/10/30 06:54:40;;;;;;;4.95;1.05;;;20.40;99.90;;;;;;5072295;28;20204;-75
2022/10/30 06:57:11;;;;;;;3.97;0.70;;;20.40;99.90;;;;;;5067577;28;20193;-77
2022/10/30 06:59:42;;;;;;;0.95;0.35;;;20.40;99.90;;;;;;5069365;28;20660;-77
2022/10/30 07:02:13;;;;;;;1.92;0.50;;;20.20;99.90;;;;;;5070396;28;20688;-77
2022/10/30 07:04:44;;;;;;;2.97;0.50;;;20.10;99.90;;;;;;5071165;28;20195;-75
2022/10/30 07:07:15;;;;;;;2.40;0.50;;;19.90;99.90;;;;;;5068798;28;20256;-78
2022/10/30 07:09:48;;;;;;;0.47;0.40;;;19.80;99.90;;;;;;5071987;28;20659;-74
2022/10/30 07:12:19;;;;;;;1.85;0.45;;;19.80;99.90;;;;;;5071293;28;20690;-74
2022/10/30 07:14:49;;;;;;;1.30;0.30;;;19.80;99.90;;;;;;5068482;28;20211;-73
2022/10/30 07:17:20;;;;;;;4.93;0.70;;;19.80;99.90;;;;;;5071034;28;20205;-73
2022/10/30 07:19:51;;;;;;;2.60;0.68;;;19.80;99.90;;;;;;5071993;28;20189;-73
2022/10/30 07:22:22;;;;;;;1.52;0.60;;;19.90;99.90;;;;;;5067577;28;20220;-71
2022/10/30 07:24:54;;;;;;;3.03;0.57;;;19.90;99.90;;;;;;5065273;28;20200;-71
2022/10/30 07:27:25;;;;;;;2.35;0.75;;;19.90;99.90;;;;;;5067746;28;20226;-71
2022/10/30 07:29:56;;;;;;;2.38;0.75;;;19.90;99.90;;;;;;5073445;28;20213;-75
2022/10/30 07:32:27;;;;;;;4.50;0.90;;;19.80;99.90;;;;;;5070946;28;20216;-72
2022/10/30 07:34:57;;;;;;;3.00;0.80;;;19.70;99.90;;;;;;5070776;28;20279;-72
2022/10/30 07:37:30;;;;;;;2.67;0.70;;;19.60;99.90;;;;;;5067943;28;20681;-70
2022/10/30 07:40:03;;;;;;;2.58;0.70;;;19.50;99.90;;;;;;5071537;28;20214;-73
2022/10/30 07:42:34;;;;;;;3.42;1.00;;;19.40;99.90;;;;;;5067159;28;20217;-73
2022/10/30 07:45:05;;;;;;;3.42;0.85;;;19.40;99.90;;;;;;5069427;28;20224;-71
2022/10/30 07:47:40;;;;;;;3.22;0.80;;;19.30;99.90;;;;;;5071644;28;20196;-70
2022/10/30 07:50:11;;;;;;;1.58;0.43;;;19.30;99.90;;;;;;5068533;28;20196;-72
2022/10/30 07:52:42;;;;;;;4.22;0.60;;;19.30;99.90;;;;;;5068080;28;20196;-72
2022/10/30 07:55:15;;;;;;;1.90;0.50;;;19.20;99.90;;;;;;5067425;28;20215;-73
2022/10/30 07:57:46;;;;;;;1.25;0.68;;;19.20;99.90;;;;;;5068369;28;20197;-70
2022/10/30 08:00:18;;;;;;;3.25;0.60;;;19.20;99.90;;;;;;5067136;28;20566;-74
2022/10/30 08:02:52;;;;;;;2.33;0.60;;;19.10;99.90;;;;;;5069080;28;20226;-74
2022/10/30 08:05:23;;;;;;;2.42;0.70;;;19.00;99.90;;;;;;5064705;28;20196;-75
2022/10/30 08:07:53;;;;;;;4.57;0.90;;;19.00;99.90;;;;;;5066829;28;20228;-71
2022/10/30 08:10:26;;;;;;;3.40;0.70;;;18.90;99.90;;;;;;5069207;28;20203;-70
2022/10/30 08:12:57;;;;;;;3.40;0.70;;;18.90;99.90;;;;;;5062760;28;20197;-75
2022/10/30 08:15:28;;;;;;;2.63;0.70;;;18.90;99.90;;;;;;5068586;28;20204;-74
2022/10/30 08:17:58;;;;;;;6.95;3.65;;;18.80;99.90;;;;;;5063975;28;20192;-72
2022/10/30 08:20:29;;;;;;;5.68;1.60;;;18.80;99.90;;;;;;5076370;28;20547;-74
2022/10/30 08:23:00;;;;;;;4.95;0.70;;;18.80;99.90;;;;;;5068393;28;20577;-74
2022/10/30 08:25:33;;;;;;;2.35;0.80;;;18.70;99.90;;;;;;5067621;28;20200;-74
2022/10/30 08:28:05;;;;;;;1.65;0.68;;;18.70;99.90;;;;;;5066545;28;20220;-71
2022/10/30 08:30:37;;;;;;;3.22;0.70;;;18.70;99.90;;;;;;5064566;28;20232;-72
2022/10/30 08:33:12;;;;;;;1.60;0.65;;;18.70;99.90;;;;;;5071905;28;20205;-72
2022/10/30 08:35:50;;;;;;;2.28;0.63;;;18.60;99.90;;;;;;5066635;28;20196;-74
2022/10/30 08:38:21;;;;;;;2.97;0.80;;;18.60;99.90;;;;;;5074472;28;20693;-71
2022/10/30 08:40:54;;;;;;;1.92;0.60;;;18.60;99.90;;;;;;5066018;28;20192;-76
2022/10/30 08:43:25;;;;;;;3.20;0.77;;;18.60;99.90;;;;;;5062644;28;20222;-74
2022/10/30 08:45:58;;;;;;;3.20;0.90;;;18.50;99.90;;;;;;5059045;28;20251;-74
2022/10/30 08:48:29;;;;;;;5.50;0.90;;;18.50;99.90;;;;;;5071836;28;20204;-72
2022/10/30 08:51:01;;;;;;;2.03;0.80;;;18.50;99.90;;;;;;5067937;28;20701;-72
2022/10/30 08:53:32;;;;;;;5.47;0.85;;;18.50;99.90;;;;;;5068637;28;20202;-75
2022/10/30 08:56:05;;;;;;;4.90;0.90;;;18.40;99.90;;;;;;5072395;28;20194;-72
2022/10/30 08:58:35;;;;;;;3.67;0.65;;;18.40;99.90;;;;;;5065873;28;20545;-72
2022/10/30 09:01:06;;;;;;;3.63;0.85;;;18.40;99.90;;;;;;5074121;28;20215;-69
2022/10/30 09:03:37;;;;;;;4.15;0.80;;;18.40;99.90;;;;;;5065112;28;20681;-75
2022/10/30 09:06:08;;;;;;;5.28;0.95;;;18.40;99.90;;;;;;5057091;28;20640;-74
2022/10/30 09:08:39;;;;;;;2.40;0.70;;;18.50;99.90;;;;;;5070079;28;20572;-72
2022/10/30 09:11:12;;;;;;;3.92;1.02;;;18.50;99.90;;;;;;5066743;28;20193;-70
2022/10/30 09:13:43;;;;;;;1.17;0.70;;;18.40;99.90;;;;;;5069790;28;20198;-73
2022/10/30 09:16:14;;;;;;;4.13;0.77;;;18.50;99.90;;;;;;5070912;28;20223;-74
2022/10/30 09:18:45;;;;;;;4.05;0.82;;;18.50;99.90;;;;;;5055896;28;20200;-73
2022/10/30 09:21:16;;;;;;;3.58;0.80;;;18.50;99.90;;;;;;5066708;28;20192;-72
2022/10/30 09:23:47;;;;;;;3.50;0.90;;;18.50;99.90;;;;;;5073653;28;20304;-73
2022/10/30 09:26:19;;;;;;;2.83;0.70;;;18.40;99.90;;;;;;5070463;28;20197;-71
2022/10/30 09:28:51;;;;;;;3.90;0.80;;;18.40;99.90;;;;;;5062785;28;20576;-75
2022/10/30 09:31:21;;;;;;;1.77;0.70;;;18.40;99.90;;;;;;5066896;28;20493;-76
2022/10/30 09:33:52;;;;;;;4.05;0.93;;;18.40;99.90;;;;;;5067957;28;20207;-72
2022/10/30 09:36:23;;;;;;;1.83;0.68;;;18.40;99.90;;;;;;5071695;28;20191;-71
2022/10/30 09:38:54;;;;;;;2.78;0.80;;;18.40;99.90;;;;;;5072349;28;20193;-72
2022/10/30 09:41:47;;;;;;;4.88;0.80;;;18.40;99.90;;;;;;5062265;28;20205;-73
2022/10/30 09:44:29;;;;;;;2.55;0.80;;;18.40;99.90;;;;;;5060014;28;20244;-73
2022/10/30 09:47:13;;;;;;;3.70;0.70;;;18.40;99.90;;;;;;5056593;28;20201;-71
2022/10/30 09:50:15;;;;;;;4.55;0.77;;;18.40;99.90;;;;;;5062661;28;20227;-70
2022/10/30 09:52:56;;;;;;;1.58;0.60;;;18.40;99.90;;;;;;5076152;28;20206;-72
2022/10/30 09:55:38;;;;;;;4.53;0.90;;;18.40;99.90;;;;;;5062674;28;20204;-73
2022/10/30 09:58:22;;;;;;;3.45;0.60;;;18.50;99.90;;;;;;5074231;28;20202;-73
2022/10/30 10:00:57;;;;;;;3.00;0.60;;;18.50;99.90;;;;;;5057069;28;20652;-73
2022/10/30 10:03:43;;;;;;;5.00;0.80;;;18.50;99.90;;;;;;5072392;28;20224;-73
2022/10/30 10:06:19;;;;;;;7.22;0.95;;;18.50;99.90;;;;;;5066586;28;20189;-73
2022/10/30 10:08:54;;;;;;;5.22;0.73;;;18.50;99.90;;;;;;5075847;28;20606;-72
2022/10/30 10:11:31;;;;;;;3.75;0.70;;;18.50;99.90;;;;;;5071569;28;20227;-75
2022/10/30 10:14:09;;;;;;;4.03;0.60;;;18.50;99.90;;;;;;5066956;28;20196;-71
2022/10/30 10:16:43;;;;;;;2.28;0.68;;;18.50;99.90;;;;;;5067427;28;20196;-72
2022/10/30 10:19:20;;;;;;;2.05;0.65;;;18.50;99.90;;;;;;5066379;28;20207;-73
2022/10/30 10:21:57;;;;;;;2.60;0.55;;;18.50;99.90;;;;;;5065968;28;20208;-72
2022/10/30 10:24:31;;;;;;;2.80;0.60;;;18.50;99.90;;;;;;5069260;28;20206;-74
2022/10/30 10:27:09;;;;;;;4.45;0.88;;;18.50;99.90;;;;;;5074121;28;20203;-71
2022/10/30 10:29:55;;;;;;;4.22;0.80;;;18.50;99.90;;;;;;5059339;28;20713;-71
2022/10/30 10:33:07;;;;;;;5.95;1.17;;;18.50;99.90;;;;;;5071442;28;20201;-73
2022/10/30 10:35:55;;;;;;;2.60;0.70;;;18.50;99.90;;;;;;5067326;28;20201;-71
2022/10/30 10:38:44;;;;;;;3.50;0.77;;;18.50;99.90;;;;;;5072792;28;20197;-71
2022/10/30 10:41:23;;;;;;;2.10;0.70;;;18.50;99.90;;;;;;5066600;28;20201;-73
2022/10/30 10:44:12;;;;;;;3.33;0.80;;;18.50;99.90;;;;;;5074229;28;20235;-73
2022/10/30 10:47:00;;;;;;;3.90;0.80;;;18.50;99.90;;;;;;5066541;28;20200;-73
2022/10/30 10:49:44;;;;;;;1.90;0.70;;;18.50;99.90;;;;;;5062369;28;20201;-70
2022/10/30 10:52:19;;;;;;;4.68;0.80;;;18.50;99.90;;;;;;5062668;28;20193;-73
2022/10/30 10:54:55;;;;;;;0.98;0.57;;;18.50;99.90;;;;;;5068037;28;20201;-72
2022/10/30 10:57:31;;;;;;;4.93;0.70;;;18.50;99.90;;;;;;5068088;28;20279;-72
2022/10/30 11:00:06;;;;;;;4.70;0.80;;;18.50;99.90;;;;;;5058767;28;20189;-73
2022/10/30 11:02:42;;;;;;;3.50;0.90;;;18.40;99.90;;;;;;5066266;28;20231;-73
2022/10/30 11:05:23;;;;;;;5.63;0.80;;;18.50;99.90;;;;;;5069209;28;20193;-75
2022/10/30 11:07:54;;;;;;;1.77;0.70;;;18.50;99.90;;;;;;5062420;28;20193;-71
2022/10/30 11:10:25;;;;;;;3.08;0.55;;;18.50;99.90;;;;;;5066930;28;20557;-73
2022/10/30 11:12:56;;;;;;;2.08;0.50;;;18.50;99.90;;;;;;5057064;28;20221;-70
2022/10/30 11:15:42;;;;;;;4.15;0.68;;;18.50;99.90;;;;;;5065519;28;20193;-74
2022/10/30 11:18:15;;;;;;;4.07;0.60;;;18.40;99.90;;;;;;5063572;28;20197;-71
2022/10/30 11:20:56;;;;;;;4.10;0.60;;;18.50;99.90;;;;;;5068049;28;20189;-73
2022/10/30 11:23:40;;;;;;;1.60;0.60;;;18.40;99.90;;;;;;5066479;28;20248;-74
2022/10/30 11:26:35;;;;;;;1.63;0.57;;;18.40;99.90;;;;;;5065170;28;20207;-72
2022/10/30 11:29:13;;;;;;;1.48;0.52;;;18.50;99.90;;;;;;5061059;28;20220;-72
2022/10/30 11:31:46;;;;;;;1.80;0.50;;;18.40;99.90;;;;;;5073832;28;20193;-72
2022/10/30 11:34:30;;;;;;;2.05;0.57;;;18.40;99.90;;;;;;5066031;28;20209;-74
2022/10/30 11:37:01;;;;;;;2.35;0.60;;;18.40;99.90;;;;;;5067717;28;20199;-70
2022/10/30 11:39:33;;;;;;;2.20;0.57;;;18.40;99.90;;;;;;5059172;28;20194;-72
2022/10/30 11:42:08;;;;;;;2.65;0.60;;;18.40;99.90;;;;;;5063007;28;20684;-73
2022/10/30 11:44:42;;;;;;;3.45;0.70;;;18.40;99.90;;;;;;5067146;28;20601;-73
2022/10/30 11:47:15;;;;;;;3.10;0.63;;;18.40;99.90;;;;;;5066975;28;20200;-74
2022/10/30 11:49:53;;;;;;;1.77;0.60;;;18.40;99.90;;;;;;5072772;28;20196;-72
2022/10/30 11:52:26;;;;;;;3.00;0.60;;;18.40;99.90;;;;;;5069632;28;20199;-74
2022/10/30 11:54:59;;;;;;;3.33;0.60;;;18.40;99.90;;;;;;5061160;28;20189;-73
2022/10/30 11:57:36;;;;;;;3.90;0.70;;;18.40;99.90;;;;;;5065798;28;20194;-73
2022/10/30 12:00:15;;;;;;;2.53;0.52;;;18.40;99.90;;;;;;5065421;28;20192;-73
2022/10/30 12:02:47;;;;;;;1.75;0.50;;;18.40;99.90;;;;;;5057640;28;20574;-75
2022/10/30 12:05:43;;;;;;;1.33;0.60;;;18.40;99.90;;;;;;5071771;28;20203;-75
2022/10/30 12:08:23;;;;;;;2.80;0.60;;;18.40;99.90;;;;;;5050325;28;20197;-75
2022/10/30 12:11:04;;;;;;;2.83;0.60;;;18.30;99.90;;;;;;5066706;28;20201;-73
2022/10/30 12:13:39;;;;;;;1.40;0.40;;;18.30;99.90;;;;;;5066922;28;20193;-72
2022/10/30 12:16:21;;;;;;;2.38;0.65;;;18.30;99.90;;;;;;5067791;28;20189;-74
2022/10/30 12:19:03;;;;;;;1.50;0.50;;;18.40;99.90;;;;;;5077932;28;20201;-74
2022/10/30 12:21:41;;;;;;;2.25;0.50;;;18.30;99.90;;;;;;5068974;28;20201;-74
2022/10/30 12:24:19;;;;;;;2.47;0.60;;;18.30;99.90;;;;;;5056875;28;20224;-75
2022/10/30 12:26:52;;;;;;;1.42;0.50;;;18.30;99.90;;;;;;5062589;28;20588;-74
2022/10/30 12:29:28;;;;;;;2.50;0.70;;;18.30;99.90;;;;;;5071890;28;20593;-73
2022/10/30 12:32:03;;;;;;;3.75;0.70;;;18.30;99.90;;;;;;5064264;28;20197;-72
2022/10/30 12:34:42;;;;;;;0.88;0.45;;;18.30;99.90;;;;;;5072714;28;20208;-74
2022/10/30 12:37:21;;;;;;;2.38;0.60;;;18.30;99.90;;;;;;5066884;28;20652;-74
2022/10/30 12:40:03;;;;;;;2.42;0.60;;;18.30;99.90;;;;;;5064784;28;20193;-72
2022/10/30 12:42:39;;;;;;;1.65;0.50;;;18.30;99.90;;;;;;5064973;28;20193;-74
2022/10/30 12:45:17;;;;;;;3.75;0.60;;;18.30;99.90;;;;;;5064152;28;20225;-73
2022/10/30 12:47:53;;;;;;;2.63;0.65;;;18.30;99.90;;;;;;5075222;28;20199;-74
2022/10/30 12:50:27;;;;;;;1.45;0.57;;;18.30;99.90;;;;;;5075059;28;20227;-73
2022/10/30 12:53:09;;;;;;;3.40;0.57;;;18.30;99.90;;;;;;5072296;28;20205;-75
2022/10/30 12:55:42;;;;;;;0.98;0.50;;;18.30;99.90;;;;;;5061140;28;20199;-75
2022/10/30 12:58:25;;;;;;;1.55;0.50;;;18.30;99.90;;;;;;5071579;28;20201;-74
2022/10/30 13:01:02;;;;;;;1.75;0.68;;;18.30;99.90;;;;;;5067927;28;20189;-73
2022/10/30 13:03:38;;;;;;;1.70;0.60;;;18.30;99.90;;;;;;5067909;28;20216;-74
2022/10/30 13:06:14;;;;;;;3.17;0.60;;;18.30;99.90;;;;;;5069288;28;20196;-74
2022/10/30 13:09:00;;;;;;;3.05;0.60;;;18.30;99.90;;;;;;5066060;28;20193;-73
2022/10/30 13:11:40;;;;;;;1.85;0.57;;;18.30;99.90;;;;;;5060442;28;20205;-71
2022/10/30 13:14:17;;;;;;;3.03;0.82;;;18.30;99.90;;;;;;5067045;28;20207;-71
2022/10/30 13:16:48;;;;;;;2.97;0.80;;;18.30;99.90;;;;;;5065375;28;20211;-73
2022/10/30 13:19:19;;;;;;;1.58;0.68;;;18.30;99.90;;;;;;5064820;28;20667;-73
2022/10/30 13:21:57;;;;;;;3.92;0.60;;;18.30;99.90;;;;;;5069638;28;20208;-73
2022/10/30 13:24:40;;;;;;;2.40;0.60;;;18.30;99.90;;;;;;5066622;28;20787;-75